Time;durP1;ratioP1;P1;durP2;ratioP2;P2;SDS_P1;SDS_P2;PMS_P1;PMS_P2;Temp;Humidity;BMP_temperature;BMP_pressure;BME280_temperature;BME280_humidity;BME280_pressure;Samples;Min_cycle;Max_cycle;Signal;HPM_P1;HPM_P2
2023/04/08 00:00:57;;;;;;;9.43;4.40;;;9.00;99.90;;;;;;4953076;28;20031;-77
2023/04/08 00:03:32;;;;;;;9.18;4.70;;;9.00;99.90;;;;;;4965408;28;20499;-77
2023/04/08 00:05:59;;;;;;;5.35;4.03;;;9.00;99.90;;;;;;4952922;28;20027;-76
2023/04/08 00:08:28;;;;;;;7.35;4.45;;;9.00;99.90;;;;;;4948894;28;20019;-76
2023/04/08 00:10:54;;;;;;;5.22;3.97;;;9.00;99.90;;;;;;4958245;28;20119;-76
2023/04/08 00:13:20;;;;;;;6.25;4.15;;;9.00;99.90;;;;;;4952588;28;20055;-75
2023/04/08 00:15:46;;;;;;;8.32;5.35;;;9.00;99.90;;;;;;4956164;28;20051;-75
2023/04/08 00:18:15;;;;;;;8.35;5.50;;;9.00;99.90;;;;;;4948151;28;20074;-78
2023/04/08 00:20:42;;;;;;;7.05;5.03;;;9.00;99.90;;;;;;4954432;28;20448;-76
2023/04/08 00:23:08;;;;;;;8.13;5.78;;;8.90;99.90;;;;;;4952942;28;20032;-76
2023/04/08 00:25:37;;;;;;;7.88;5.50;;;9.00;99.90;;;;;;4955428;28;20035;-75
2023/04/08 00:28:02;;;;;;;9.80;5.30;;;9.00;99.90;;;;;;4949110;28;20035;-75
2023/04/08 00:30:31;;;;;;;9.07;4.57;;;9.00;99.90;;;;;;4951375;28;20028;-75
2023/04/08 00:32:57;;;;;;;6.07;4.82;;;9.00;99.90;;;;;;4947833;28;20031;-74
2023/04/08 00:35:23;;;;;;;9.73;5.43;;;9.00;99.90;;;;;;4961730;28;20396;-75
2023/04/08 00:37:49;;;;;;;11.02;5.63;;;9.00;99.90;;;;;;4950940;28;20034;-75
2023/04/08 00:40:15;;;;;;;9.30;5.80;;;9.00;99.90;;;;;;4950230;28;20680;-75
2023/04/08 00:42:40;;;;;;;7.78;5.13;;;9.00;99.90;;;;;;4963485;28;20484;-76
2023/04/08 00:45:07;;;;;;;7.57;5.38;;;9.00;99.90;;;;;;4954290;28;20035;-74
2023/04/08 00:47:42;;;;;;;7.82;5.55;;;9.10;99.90;;;;;;4947467;28;20530;-75
2023/04/08 00:50:11;;;;;;;7.97;5.97;;;9.10;99.90;;;;;;4954907;28;20034;-75
2023/04/08 00:52:55;;;;;;;8.32;5.43;;;9.10;99.90;;;;;;4963187;28;20027;-75
2023/04/08 00:55:24;;;;;;;8.52;5.60;;;9.10;99.90;;;;;;4951332;28;20031;-76
2023/04/08 00:57:50;;;;;;;11.43;5.75;;;9.10;99.90;;;;;;4968718;28;20448;-75
2023/04/08 01:00:15;;;;;;;10.40;6.25;;;9.10;99.90;;;;;;4951412;28;20062;-76
2023/04/08 01:02:59;;;;;;;9.38;5.85;;;9.00;99.90;;;;;;4953040;28;20043;-76
2023/04/08 01:05:43;;;;;;;9.68;5.78;;;9.00;99.90;;;;;;4952111;28;20559;-76
2023/04/08 01:08:11;;;;;;;7.50;5.43;;;9.00;99.90;;;;;;4954445;28;20035;-75
2023/04/08 01:10:48;;;;;;;8.52;5.00;;;9.00;99.90;;;;;;4971577;28;20027;-75
2023/04/08 01:13:19;;;;;;;7.63;5.32;;;9.00;99.90;;;;;;4972453;28;20031;-76
2023/04/08 01:15:45;;;;;;;9.73;5.28;;;9.00;99.90;;;;;;4949592;28;20027;-76
2023/04/08 01:18:21;;;;;;;9.57;5.90;;;9.00;99.90;;;;;;4954080;28;20047;-75
2023/04/08 01:20:50;;;;;;;8.50;6.05;;;9.00;99.90;;;;;;4956422;28;20540;-75
2023/04/08 01:23:38;;;;;;;10.02;5.97;;;8.90;99.90;;;;;;4951960;28;20076;-73
2023/04/08 01:26:03;;;;;;;9.38;6.25;;;8.90;99.90;;;;;;4954541;28;20046;-74
2023/04/08 01:28:32;;;;;;;11.88;6.57;;;8.90;99.90;;;;;;4969320;28;20408;-74
2023/04/08 01:31:02;;;;;;;10.02;6.38;;;8.90;99.90;;;;;;4954371;28;20126;-74
2023/04/08 01:33:31;;;;;;;8.73;6.18;;;8.80;99.90;;;;;;4957329;28;20070;-74
2023/04/08 01:36:04;;;;;;;9.88;6.32;;;8.80;99.90;;;;;;4950436;28;20189;-74
2023/04/08 01:38:32;;;;;;;13.45;7.03;;;8.80;99.90;;;;;;4957879;28;20058;-75
2023/04/08 01:40:59;;;;;;;13.10;6.63;;;8.70;99.90;;;;;;4954067;28;20544;-75
2023/04/08 01:43:28;;;;;;;11.65;6.80;;;8.70;99.90;;;;;;4955768;28;20035;-75
2023/04/08 01:45:57;;;;;;;10.73;6.65;;;8.70;99.90;;;;;;4967091;28;20038;-75
2023/04/08 01:48:24;;;;;;;11.52;7.35;;;8.60;99.90;;;;;;4954492;28;20039;-75
2023/04/08 01:50:50;;;;;;;9.80;6.65;;;8.70;99.90;;;;;;4972128;28;21348;-75
2023/04/08 01:53:22;;;;;;;11.35;7.57;;;8.60;99.90;;;;;;4974562;28;20054;-73
2023/04/08 01:55:54;;;;;;;12.63;7.82;;;8.70;99.90;;;;;;4972716;28;20619;-75
2023/04/08 01:58:21;;;;;;;12.55;7.75;;;8.70;99.90;;;;;;4953424;28;20042;-75
2023/04/08 02:00:48;;;;;;;13.40;8.00;;;8.60;99.90;;;;;;4960028;28;20093;-75
2023/04/08 02:03:17;;;;;;;12.80;8.30;;;8.50;99.90;;;;;;4953257;28;20031;-76
2023/04/08 02:05:43;;;;;;;15.38;8.73;;;8.50;99.90;;;;;;4954729;28;20072;-77
2023/04/08 02:08:09;;;;;;;15.82;9.20;;;8.50;99.90;;;;;;4972577;28;20031;-75
2023/04/08 02:10:34;;;;;;;13.52;8.65;;;8.60;99.90;;;;;;4970393;28;20053;-75
2023/04/08 02:13:06;;;;;;;15.30;9.93;;;8.60;99.90;;;;;;4958651;28;20031;-76
2023/04/08 02:15:40;;;;;;;13.57;8.82;;;8.60;99.90;;;;;;4958905;28;20531;-75
2023/04/08 02:18:15;;;;;;;15.70;9.65;;;8.60;99.90;;;;;;4955585;28;20500;-77
2023/04/08 02:20:49;;;;;;;15.95;9.30;;;8.60;99.90;;;;;;4954916;28;20105;-76
2023/04/08 02:23:20;;;;;;;16.42;10.23;;;8.60;99.90;;;;;;4957373;28;20500;-77
2023/04/08 02:25:47;;;;;;;13.93;9.13;;;8.60;99.90;;;;;;4958405;28;20030;-75
2023/04/08 02:28:17;;;;;;;16.27;9.90;;;8.60;99.90;;;;;;4970806;28;20491;-74
2023/04/08 02:30:49;;;;;;;15.75;10.50;;;8.60;99.90;;;;;;4974543;28;20110;-75
2023/04/08 02:33:18;;;;;;;17.77;10.02;;;8.60;99.90;;;;;;4958318;28;20019;-75
2023/04/08 02:35:45;;;;;;;15.90;10.27;;;8.50;99.90;;;;;;4954057;28;20027;-75
2023/04/08 02:38:11;;;;;;;19.50;11.13;;;8.50;99.90;;;;;;4951906;28;20039;-74
2023/04/08 02:40:36;;;;;;;17.52;10.25;;;8.50;99.90;;;;;;4968739;28;20030;-75
2023/04/08 02:43:02;;;;;;;17.25;10.13;;;8.50;99.90;;;;;;4953379;28;20031;-75
2023/04/08 02:45:41;;;;;;;15.13;10.15;;;8.40;99.90;;;;;;4957422;28;20476;-74
2023/04/08 02:48:07;;;;;;;16.60;10.57;;;8.40;99.90;;;;;;4973475;28;20103;-74
2023/04/08 02:50:33;;;;;;;19.55;10.60;;;8.50;99.90;;;;;;4959075;28;20091;-74
2023/04/08 02:53:01;;;;;;;18.45;11.55;;;8.40;99.90;;;;;;4957741;28;20023;-73
2023/04/08 02:55:27;;;;;;;16.95;11.32;;;8.40;99.90;;;;;;4961152;28;20463;-73
2023/04/08 02:57:52;;;;;;;16.27;10.30;;;8.40;99.90;;;;;;4958706;28;20082;-75
2023/04/08 03:00:21;;;;;;;16.98;10.65;;;8.40;99.90;;;;;;4975134;28;20106;-75
2023/04/08 03:02:50;;;;;;;17.92;10.07;;;8.40;99.90;;;;;;4955010;28;20099;-73
2023/04/08 03:05:15;;;;;;;18.55;10.52;;;8.40;99.90;;;;;;4955970;28;20031;-73
2023/04/08 03:07:41;;;;;;;17.90;11.27;;;8.40;99.90;;;;;;4957951;28;20082;-75
2023/04/08 03:10:07;;;;;;;16.65;10.70;;;8.40;99.90;;;;;;4957523;28;20376;-75
2023/04/08 03:12:36;;;;;;;16.75;10.60;;;8.40;99.90;;;;;;4958576;28;20031;-74
2023/04/08 03:15:02;;;;;;;15.43;10.43;;;8.40;99.90;;;;;;4954996;28;20024;-74
2023/04/08 03:17:33;;;;;;;14.77;9.98;;;8.40;99.90;;;;;;4958179;28;20023;-73
2023/04/08 03:20:05;;;;;;;17.10;9.60;;;8.40;99.90;;;;;;4958541;28;20361;-75
2023/04/08 03:22:32;;;;;;;14.73;9.88;;;8.40;99.90;;;;;;4973770;28;20023;-76
2023/04/08 03:25:00;;;;;;;13.52;8.82;;;8.30;99.90;;;;;;4951410;28;20114;-76
2023/04/08 03:27:29;;;;;;;17.17;9.75;;;8.20;99.90;;;;;;4959152;28;20054;-75
2023/04/08 03:29:58;;;;;;;17.35;9.93;;;8.30;99.90;;;;;;4952553;28;20027;-76
2023/04/08 03:32:23;;;;;;;15.65;9.98;;;8.30;99.90;;;;;;4954579;28;20078;-75
2023/04/08 03:34:52;;;;;;;16.45;10.68;;;8.30;99.90;;;;;;4955791;28;20121;-75
2023/04/08 03:37:21;;;;;;;18.48;11.30;;;8.30;99.90;;;;;;4952031;28;20035;-75
2023/04/08 03:39:46;;;;;;;15.90;9.55;;;8.30;99.90;;;;;;4955790;28;20034;-75
2023/04/08 03:42:18;;;;;;;16.20;10.43;;;8.30;99.90;;;;;;4953982;28;20035;-75
2023/04/08 03:44:44;;;;;;;16.88;10.27;;;8.20;99.90;;;;;;4949880;28;20364;-75
2023/04/08 03:47:09;;;;;;;18.15;11.07;;;8.20;99.90;;;;;;4968398;28;20085;-75
2023/04/08 03:49:35;;;;;;;14.52;9.38;;;8.20;99.90;;;;;;4952772;28;20027;-75
2023/04/08 03:52:07;;;;;;;15.45;9.98;;;8.30;99.90;;;;;;4971286;28;20027;-73
2023/04/08 03:54:39;;;;;;;15.43;9.95;;;8.30;99.90;;;;;;4956006;28;20066;-73
2023/04/08 03:57:05;;;;;;;16.23;10.27;;;8.20;99.90;;;;;;4969378;28;20082;-75
2023/04/08 03:59:38;;;;;;;16.98;9.90;;;8.30;99.90;;;;;;4958049;28;20459;-74
2023/04/08 04:02:12;;;;;;;15.35;9.32;;;8.30;99.90;;;;;;4950947;28;20070;-75
2023/04/08 04:04:41;;;;;;;16.55;10.65;;;8.30;99.90;;;;;;4954367;28;20480;-75
2023/04/08 04:07:19;;;;;;;14.48;9.65;;;8.20;99.90;;;;;;4969326;28;20051;-75
2023/04/08 04:09:45;;;;;;;18.35;11.02;;;8.20;99.90;;;;;;4951600;28;20038;-73
2023/04/08 04:12:10;;;;;;;15.48;9.20;;;8.20;99.90;;;;;;4956431;28;20392;-76
2023/04/08 04:14:36;;;;;;;14.98;9.20;;;8.30;99.90;;;;;;4955234;28;20027;-76
2023/04/08 04:17:04;;;;;;;14.20;8.95;;;8.30;99.90;;;;;;4958401;28;20031;-75
2023/04/08 04:19:31;;;;;;;11.82;7.55;;;8.20;99.90;;;;;;4953898;28;20592;-75
2023/04/08 04:22:02;;;;;;;14.32;8.77;;;8.20;99.90;;;;;;4957145;28;20035;-75
2023/04/08 04:24:31;;;;;;;14.15;9.15;;;8.20;99.90;;;;;;4959616;28;20031;-75
2023/04/08 04:26:57;;;;;;;13.93;9.23;;;8.10;99.90;;;;;;4956247;28;20035;-75
2023/04/08 04:29:25;;;;;;;13.25;8.05;;;8.20;99.90;;;;;;4954453;28;20034;-76
2023/04/08 04:31:57;;;;;;;12.82;7.68;;;8.10;99.90;;;;;;4957937;28;20031;-75
2023/04/08 04:34:22;;;;;;;13.20;8.43;;;8.20;99.90;;;;;;4955706;28;20042;-75
2023/04/08 04:36:48;;;;;;;15.45;9.95;;;8.10;99.90;;;;;;4957006;28;20536;-76
2023/04/08 04:39:26;;;;;;;15.65;10.10;;;8.10;99.90;;;;;;4953955;28;20464;-76
2023/04/08 04:41:52;;;;;;;15.57;10.75;;;8.20;99.90;;;;;;4966478;28;20484;-76
2023/04/08 04:44:24;;;;;;;17.58;11.00;;;8.20;99.90;;;;;;4969751;28;20030;-77
2023/04/08 04:46:50;;;;;;;17.48;10.98;;;8.20;99.90;;;;;;4953294;28;20035;-77
2023/04/08 04:49:18;;;;;;;16.23;10.60;;;8.20;99.90;;;;;;4953698;28;20109;-76
2023/04/08 04:51:44;;;;;;;15.73;10.50;;;8.20;99.90;;;;;;4973611;28;20035;-76
2023/04/08 04:54:25;;;;;;;16.35;11.15;;;8.20;99.90;;;;;;4952982;28;20495;-75
2023/04/08 04:56:51;;;;;;;18.60;11.88;;;8.20;99.90;;;;;;4951537;28;20464;-77
2023/04/08 04:59:22;;;;;;;18.35;11.93;;;8.20;99.90;;;;;;4953447;28;20126;-74
2023/04/08 05:01:48;;;;;;;19.48;11.88;;;8.20;99.90;;;;;;4949276;28;20039;-75
2023/04/08 05:04:23;;;;;;;20.85;12.00;;;8.20;99.90;;;;;;4950482;28;20035;-73
2023/04/08 05:06:54;;;;;;;17.45;11.70;;;8.20;99.90;;;;;;4957687;28;20034;-75
2023/04/08 05:09:20;;;;;;;17.50;11.30;;;8.20;99.90;;;;;;4956314;28;20023;-73
2023/04/08 05:11:48;;;;;;;20.33;11.45;;;8.10;99.90;;;;;;4959271;28;20053;-73
2023/04/08 05:14:14;;;;;;;18.75;12.57;;;8.10;99.90;;;;;;4982206;28;20173;-73
2023/04/08 05:16:55;;;;;;;19.33;11.73;;;8.10;99.90;;;;;;4972741;28;20114;-72
2023/04/08 05:19:21;;;;;;;17.15;11.02;;;8.10;99.90;;;;;;4955429;28;20027;-73
2023/04/08 05:21:50;;;;;;;16.85;10.73;;;8.10;99.90;;;;;;4964655;28;20868;-74
2023/04/08 05:24:18;;;;;;;17.20;11.25;;;8.10;99.90;;;;;;4968617;28;20075;-73
2023/04/08 05:26:51;;;;;;;20.25;11.38;;;8.10;99.90;;;;;;4954488;28;20097;-74
2023/04/08 05:29:17;;;;;;;17.02;10.25;;;8.20;99.90;;;;;;4960431;28;20027;-74
2023/04/08 05:31:46;;;;;;;16.75;10.52;;;8.20;99.90;;;;;;4962471;28;20272;-74
2023/04/08 05:34:12;;;;;;;19.08;12.27;;;8.20;99.90;;;;;;4960307;28;20488;-73
2023/04/08 05:36:46;;;;;;;16.30;10.70;;;8.20;99.90;;;;;;4956602;28;20073;-73
2023/04/08 05:39:15;;;;;;;17.67;11.65;;;8.20;99.90;;;;;;4958079;28;20078;-75
2023/04/08 05:41:44;;;;;;;17.75;11.18;;;8.30;99.90;;;;;;4957380;28;20050;-74
2023/04/08 05:44:21;;;;;;;16.48;10.60;;;8.30;99.90;;;;;;4960625;28;20059;-75
2023/04/08 05:47:06;;;;;;;16.75;9.02;;;8.20;99.90;;;;;;4957268;28;20027;-76
2023/04/08 05:49:37;;;;;;;;;;;8.30;99.90;;;;;;4960439;28;20027;-73
2023/04/08 05:52:15;;;;;;;15.70;8.90;;;8.30;99.90;;;;;;4959826;28;19993;-75
2023/04/08 05:54:52;;;;;;;17.52;9.63;;;8.30;99.90;;;;;;4957059;28;20023;-74
2023/04/08 05:57:30;;;;;;;17.27;10.50;;;8.20;99.90;;;;;;4952226;28;20039;-72
2023/04/08 05:59:56;;;;;;;18.75;10.77;;;8.30;99.90;;;;;;4954508;28;20054;-74
2023/04/08 06:02:24;;;;;;;18.80;11.15;;;8.30;99.90;;;;;;4955822;28;20031;-73
2023/04/08 06:04:59;;;;;;;16.85;10.68;;;8.30;99.90;;;;;;4959021;28;20158;-72
2023/04/08 06:07:32;;;;;;;17.85;11.35;;;8.40;99.90;;;;;;4961710;28;20114;-74
2023/04/08 06:10:02;;;;;;;16.65;11.15;;;8.40;99.90;;;;;;4959120;28;20087;-73
2023/04/08 06:12:33;;;;;;;21.63;12.23;;;8.40;99.90;;;;;;4949946;28;20400;-73
2023/04/08 06:15:06;;;;;;;21.60;11.85;;;8.50;99.90;;;;;;4971845;28;20507;-73
2023/04/08 06:17:34;;;;;;;20.00;12.23;;;8.50;99.90;;;;;;4954632;28;20042;-72
2023/04/08 06:20:00;;;;;;;22.10;12.38;;;8.60;99.90;;;;;;4957296;28;20077;-72
2023/04/08 06:22:32;;;;;;;18.98;11.63;;;8.50;99.90;;;;;;4964491;28;20483;-73
2023/04/08 06:24:58;;;;;;;17.98;11.43;;;8.60;99.90;;;;;;4957324;28;20441;-75
2023/04/08 06:27:27;;;;;;;19.17;12.32;;;8.60;99.90;;;;;;4956025;28;20058;-72
2023/04/08 06:29:56;;;;;;;20.52;12.27;;;8.60;99.90;;;;;;4955358;28;20023;-73
2023/04/08 06:32:24;;;;;;;21.83;11.73;;;8.60;99.90;;;;;;4959970;28;20122;-72
2023/04/08 06:34:59;;;;;;;20.05;11.45;;;8.60;99.90;;;;;;4958513;28;20047;-73
2023/04/08 06:37:31;;;;;;;15.20;10.40;;;8.50;99.90;;;;;;4956112;28;20366;-72
2023/04/08 06:40:09;;;;;;;15.82;10.48;;;8.50;99.90;;;;;;4944378;28;20680;-73
2023/04/08 06:42:37;;;;;;;15.10;9.85;;;8.50;99.90;;;;;;4966163;28;20101;-73
2023/04/08 06:45:11;;;;;;;17.20;10.02;;;8.40;99.90;;;;;;4956923;28;20030;-72
2023/04/08 06:47:40;;;;;;;16.25;9.82;;;8.50;99.90;;;;;;4956749;28;20547;-73
2023/04/08 06:50:06;;;;;;;17.08;10.52;;;8.50;99.90;;;;;;4957262;28;20038;-73
2023/04/08 06:52:37;;;;;;;17.92;10.57;;;8.50;99.90;;;;;;4958098;28;20027;-74
2023/04/08 06:55:09;;;;;;;17.17;10.63;;;8.50;99.90;;;;;;4970997;28;20101;-73
2023/04/08 06:57:38;;;;;;;17.30;10.25;;;8.50;99.90;;;;;;4960137;28;20082;-73
2023/04/08 07:00:16;;;;;;;18.70;10.90;;;8.60;99.90;;;;;;4961971;28;20043;-71
2023/04/08 07:02:56;;;;;;;19.27;11.45;;;8.60;99.90;;;;;;4956879;28;20027;-76
2023/04/08 07:05:25;;;;;;;17.75;9.52;;;8.60;99.90;;;;;;4953201;28;20031;-75
2023/04/08 07:07:56;;;;;;;16.83;11.13;;;8.60;99.90;;;;;;4946231;28;20053;-76
2023/04/08 07:10:25;;;;;;;18.05;10.85;;;8.60;99.90;;;;;;4956849;28;20043;-77
2023/04/08 07:12:54;;;;;;;17.80;9.60;;;8.60;99.90;;;;;;4955097;28;20433;-75
2023/04/08 07:15:25;;;;;;;16.95;11.07;;;8.60;99.90;;;;;;4973123;28;20062;-75
2023/04/08 07:17:51;;;;;;;18.10;11.23;;;8.50;99.90;;;;;;4956049;28;20023;-76
2023/04/08 07:20:23;;;;;;;16.70;10.50;;;8.60;99.90;;;;;;4955442;28;20561;-76
2023/04/08 07:22:49;;;;;;;17.55;10.55;;;8.60;99.90;;;;;;4955489;28;20094;-77
2023/04/08 07:25:20;;;;;;;18.48;10.27;;;8.60;99.90;;;;;;4955192;28;20057;-76
2023/04/08 07:27:52;;;;;;;20.15;11.68;;;8.60;99.90;;;;;;4956151;28;20074;-76
2023/04/08 07:30:18;;;;;;;17.48;11.52;;;8.50;99.90;;;;;;4958381;28;20047;-75
2023/04/08 07:32:50;;;;;;;20.20;11.43;;;8.40;99.90;;;;;;4960510;28;20035;-76
2023/04/08 07:35:23;;;;;;;17.25;10.65;;;8.30;99.90;;;;;;4974215;28;20489;-76
2023/04/08 07:37:52;;;;;;;18.27;10.63;;;8.30;99.90;;;;;;4955949;28;20071;-74
2023/04/08 07:40:20;;;;;;;19.02;11.50;;;8.30;99.90;;;;;;4955293;28;20054;-76
2023/04/08 07:42:46;;;;;;;16.15;10.18;;;8.30;99.90;;;;;;4954773;28;20027;-76
2023/04/08 07:45:12;;;;;;;17.95;11.10;;;8.20;99.90;;;;;;4958609;28;20688;-76
2023/04/08 07:47:40;;;;;;;16.60;10.68;;;8.30;99.90;;;;;;4957982;28;20095;-77
2023/04/08 07:50:07;;;;;;;18.63;11.15;;;8.20;99.90;;;;;;4952937;28;20031;-75
2023/04/08 07:52:41;;;;;;;17.05;9.57;;;8.20;99.90;;;;;;4959673;28;20023;-76
2023/04/08 07:55:07;;;;;;;13.93;8.77;;;8.20;99.90;;;;;;4953855;28;20035;-75
2023/04/08 07:57:36;;;;;;;15.68;9.85;;;8.10;99.90;;;;;;4959183;28;20489;-76
2023/04/08 08:00:05;;;;;;;13.88;9.45;;;8.10;99.90;;;;;;4960137;28;20135;-76
2023/04/08 08:02:32;;;;;;;14.38;9.80;;;8.10;99.90;;;;;;4958024;28;20078;-76
2023/04/08 08:05:02;;;;;;;14.85;8.93;;;8.10;99.90;;;;;;4959456;28;20033;-76
2023/04/08 08:07:28;;;;;;;15.75;9.15;;;8.10;99.90;;;;;;4956373;28;20480;-76
2023/04/08 08:09:53;;;;;;;15.13;9.27;;;8.10;99.90;;;;;;4959225;28;20027;-76
2023/04/08 08:12:22;;;;;;;13.65;8.27;;;8.20;99.90;;;;;;4958478;28;20053;-74
2023/04/08 08:15:00;;;;;;;14.55;9.25;;;8.20;99.90;;;;;;4955823;28;20110;-75
2023/04/08 08:17:28;;;;;;;13.80;8.85;;;8.30;99.90;;;;;;4956334;28;20480;-76
2023/04/08 08:19:54;;;;;;;10.68;7.32;;;8.40;99.90;;;;;;4953977;28;20031;-76
2023/04/08 08:22:26;;;;;;;12.27;7.97;;;8.40;99.90;;;;;;4958111;28;20053;-75
2023/04/08 08:24:56;;;;;;;11.10;7.57;;;8.50;99.90;;;;;;4956180;28;20038;-74
2023/04/08 08:27:22;;;;;;;10.65;7.55;;;8.50;99.90;;;;;;4955317;28;20022;-75
2023/04/08 08:29:51;;;;;;;10.65;7.32;;;8.50;99.90;;;;;;4952246;28;20499;-74
2023/04/08 08:32:26;;;;;;;12.38;8.18;;;8.60;99.90;;;;;;4956596;28;20027;-76
2023/04/08 08:34:51;;;;;;;11.75;7.63;;;8.60;99.90;;;;;;4959304;28;20063;-76
2023/04/08 08:37:17;;;;;;;12.63;7.60;;;8.70;99.90;;;;;;4958140;28;20057;-75
2023/04/08 08:39:45;;;;;;;12.57;7.68;;;8.70;99.90;;;;;;4960420;28;20828;-74
2023/04/08 08:42:25;;;;;;;10.95;7.55;;;8.70;99.90;;;;;;4960844;28;20043;-75
2023/04/08 08:44:50;;;;;;;11.82;8.40;;;8.70;99.90;;;;;;4962201;28;20027;-75
2023/04/08 08:47:20;;;;;;;11.10;7.60;;;8.80;99.90;;;;;;4956848;28;20089;-75
2023/04/08 08:49:47;;;;;;;11.60;8.38;;;8.70;99.90;;;;;;4959252;28;20055;-73
2023/04/08 08:52:17;;;;;;;16.90;10.68;;;8.80;99.90;;;;;;4974352;28;20031;-75
2023/04/08 08:54:46;;;;;;;11.52;7.97;;;8.90;99.90;;;;;;4955435;28;20400;-75
2023/04/08 08:57:21;;;;;;;14.45;9.18;;;8.80;99.90;;;;;;4954901;28;20035;-74
2023/04/08 08:59:49;;;;;;;10.73;7.60;;;8.90;99.90;;;;;;4962159;28;20388;-75
2023/04/08 09:02:30;;;;;;;10.75;8.05;;;8.90;99.90;;;;;;4963149;28;20027;-74
2023/04/08 09:05:00;;;;;;;11.73;7.88;;;9.00;99.90;;;;;;4957212;28;20031;-75
2023/04/08 09:07:28;;;;;;;11.95;7.85;;;9.00;99.90;;;;;;4960636;28;20027;-75
2023/04/08 09:10:01;;;;;;;10.15;7.07;;;9.00;99.90;;;;;;4961408;28;20032;-75
2023/04/08 09:12:27;;;;;;;12.30;8.88;;;9.10;99.90;;;;;;4958457;28;20039;-75
2023/04/08 09:15:08;;;;;;;15.18;8.50;;;9.10;99.90;;;;;;4952680;28;20027;-75
2023/04/08 09:17:37;;;;;;;13.07;8.45;;;9.20;99.90;;;;;;4957772;28;20042;-75
2023/04/08 09:20:10;;;;;;;10.35;7.00;;;9.30;99.90;;;;;;4955129;28;20468;-75
2023/04/08 09:22:55;;;;;;;10.23;7.60;;;9.30;99.90;;;;;;4970557;28;20039;-74
2023/04/08 09:25:32;;;;;;;11.68;7.88;;;9.40;99.90;;;;;;4958637;28;20034;-75
2023/04/08 09:27:58;;;;;;;11.18;8.13;;;9.30;99.90;;;;;;4959525;28;20027;-75
2023/04/08 09:30:26;;;;;;;10.13;7.50;;;9.40;99.90;;;;;;4957423;28;20110;-75
2023/04/08 09:32:56;;;;;;;9.75;6.60;;;9.40;99.90;;;;;;4972290;28;20034;-74
2023/04/08 09:35:22;;;;;;;12.13;8.40;;;9.40;99.90;;;;;;4973556;28;20027;-75
2023/04/08 09:37:49;;;;;;;14.43;8.55;;;9.40;99.90;;;;;;4976435;28;20098;-75
2023/04/08 09:40:23;;;;;;;10.52;7.40;;;9.40;99.90;;;;;;4962912;28;20090;-74
2023/04/08 09:42:53;;;;;;;12.68;7.68;;;9.50;99.90;;;;;;4974529;28;20027;-75
2023/04/08 09:45:35;;;;;;;10.88;7.72;;;9.60;99.90;;;;;;4976224;28;20023;-75
2023/04/08 09:48:16;;;;;;;14.15;8.82;;;9.70;99.90;;;;;;4972850;28;20050;-74
2023/04/08 09:50:50;;;;;;;13.90;8.80;;;9.90;99.90;;;;;;4970911;28;20107;-75
2023/04/08 09:53:25;;;;;;;12.88;9.32;;;10.00;99.90;;;;;;4958115;28;20043;-73
2023/04/08 09:55:55;;;;;;;13.18;8.05;;;10.20;99.90;;;;;;4970385;28;20085;-73
2023/04/08 09:58:32;;;;;;;11.40;8.35;;;10.30;99.90;;;;;;4953694;28;20388;-74
2023/04/08 10:01:01;;;;;;;13.75;8.25;;;10.50;99.90;;;;;;4958513;28;20053;-74
2023/04/08 10:03:55;;;;;;;11.27;8.07;;;10.70;99.90;;;;;;4907488;28;20062;-72
2023/04/08 10:06:26;;;;;;;;;;;10.80;99.90;;;;;;4952585;28;20071;-73
2023/04/08 10:08:52;;;;;;;11.82;8.93;;;10.90;99.90;;;;;;4951853;28;19976;-73
2023/04/08 10:11:19;;;;;;;14.65;8.95;;;11.00;99.90;;;;;;4953775;28;20035;-73
2023/04/08 10:13:45;;;;;;;13.00;8.27;;;11.00;99.90;;;;;;4953764;28;20045;-72
2023/04/08 10:16:19;;;;;;;13.05;8.55;;;11.10;99.90;;;;;;4954396;28;20040;-73
2023/04/08 10:18:45;;;;;;;16.92;9.35;;;11.00;99.90;;;;;;4956439;28;20489;-73
2023/04/08 10:21:38;;;;;;;14.43;9.05;;;11.00;99.90;;;;;;4975555;23;20904;-76
2023/04/08 10:24:10;;;;;;;15.48;10.40;;;11.00;99.90;;;;;;4947809;28;20500;-76
2023/04/08 10:26:44;;;;;;;13.57;9.57;;;11.00;99.90;;;;;;4949852;28;20030;-76
2023/04/08 10:29:18;;;;;;;14.18;9.70;;;11.00;99.90;;;;;;4948942;28;20046;-76
2023/04/08 10:31:45;;;;;;;14.38;9.73;;;11.10;99.90;;;;;;4928684;29;20032;-78
2023/04/08 10:34:25;;;;;;;18.75;9.90;;;11.10;99.90;;;;;;4927552;29;20032;-77
2023/04/08 10:36:52;;;;;;;14.63;9.43;;;11.10;99.90;;;;;;4926601;29;20023;-77
2023/04/08 10:39:18;;;;;;;19.48;11.93;;;11.00;99.90;;;;;;4927797;29;20043;-79
2023/04/08 10:41:45;;;;;;;14.30;9.90;;;11.00;99.90;;;;;;4928955;29;20035;-78
2023/04/08 10:44:18;;;;;;;16.15;10.48;;;11.10;99.90;;;;;;4929952;29;20023;-78
2023/04/08 10:46:45;;;;;;;12.35;9.27;;;11.20;99.90;;;;;;4928237;29;20102;-77
2023/04/08 10:49:11;;;;;;;15.68;10.48;;;11.20;99.90;;;;;;4933272;29;20039;-79
2023/04/08 10:51:38;;;;;;;15.00;9.80;;;11.20;99.90;;;;;;4930334;29;20488;-77
2023/04/08 10:54:15;;;;;;;14.27;10.18;;;11.20;99.90;;;;;;4931850;28;20041;-78
2023/04/08 10:57:00;;;;;;;14.63;10.38;;;11.20;99.90;;;;;;4930054;29;20344;-77
2023/04/08 10:59:33;;;;;;;14.68;10.02;;;11.40;99.90;;;;;;4931891;29;20039;-78
2023/04/08 11:02:00;;;;;;;13.77;9.80;;;11.40;99.90;;;;;;4928820;28;20063;-79
2023/04/08 11:04:26;;;;;;;14.50;9.85;;;11.40;99.90;;;;;;4932243;29;20047;-78
2023/04/08 11:06:52;;;;;;;14.85;10.80;;;11.40;99.90;;;;;;4930092;29;20433;-78
2023/04/08 11:09:18;;;;;;;16.75;10.65;;;11.50;99.90;;;;;;4930424;29;20608;-78
2023/04/08 11:11:44;;;;;;;29.45;14.68;;;11.40;99.90;;;;;;4930173;29;20031;-79
2023/04/08 11:14:10;;;;;;;19.92;12.23;;;11.40;99.90;;;;;;4927368;29;20052;-77
2023/04/08 11:16:37;;;;;;;23.98;12.75;;;11.30;99.90;;;;;;4927691;29;20052;-77
2023/04/08 11:19:05;;;;;;;22.20;12.90;;;11.30;99.90;;;;;;4926920;29;20111;-76
2023/04/08 11:21:34;;;;;;;20.83;12.80;;;11.20;99.90;;;;;;4930187;29;20035;-76
2023/04/08 11:23:59;;;;;;;16.85;11.63;;;11.10;99.90;;;;;;4929712;29;20045;-76
2023/04/08 11:26:26;;;;;;;17.15;10.35;;;11.00;99.90;;;;;;4928464;29;20102;-77
2023/04/08 11:28:53;;;;;;;18.20;12.27;;;11.00;99.90;;;;;;4933127;29;20531;-76
2023/04/08 11:31:21;;;;;;;17.80;12.27;;;11.00;99.90;;;;;;4945282;28;20037;-77
2023/04/08 11:33:48;;;;;;;17.23;11.32;;;10.90;99.90;;;;;;4930606;29;20024;-77
2023/04/08 11:36:14;;;;;;;17.25;12.50;;;11.00;99.90;;;;;;4928031;29;20059;-76
2023/04/08 11:38:42;;;;;;;16.90;11.80;;;11.00;99.90;;;;;;4935744;29;20052;-77
2023/04/08 11:41:10;;;;;;;20.48;11.32;;;10.90;99.90;;;;;;4936178;29;20028;-77
2023/04/08 11:43:35;;;;;;;17.48;11.27;;;11.00;99.90;;;;;;4933295;28;20024;-78
2023/04/08 11:46:11;;;;;;;21.02;12.02;;;10.90;99.90;;;;;;4960925;28;20386;-77
2023/04/08 11:48:37;;;;;;;16.38;11.57;;;10.90;99.90;;;;;;4933247;29;20062;-77
2023/04/08 11:51:07;;;;;;;16.67;11.48;;;10.90;99.90;;;;;;4930409;29;20484;-77
2023/04/08 11:53:36;;;;;;;17.45;11.00;;;10.90;99.90;;;;;;4931608;29;20392;-78
2023/04/08 11:56:22;;;;;;;18.23;11.55;;;10.80;99.90;;;;;;4929514;29;20114;-77
2023/04/08 11:58:49;;;;;;;16.15;11.18;;;10.80;99.90;;;;;;4929108;29;20381;-78
2023/04/08 12:01:15;;;;;;;17.05;11.18;;;10.90;99.70;;;;;;4929024;29;20024;-78
2023/04/08 12:04:01;;;;;;;22.35;13.05;;;10.80;99.00;;;;;;4932145;29;20042;-78
2023/04/08 12:06:27;;;;;;;20.20;11.82;;;10.70;98.80;;;;;;4929860;29;20406;-78
2023/04/08 12:08:56;;;;;;;17.38;12.00;;;10.70;99.10;;;;;;4939607;28;20035;-78
2023/04/08 12:11:23;;;;;;;20.38;12.52;;;10.70;99.20;;;;;;4928889;29;20059;-78
2023/04/08 12:13:49;;;;;;;14.82;11.07;;;10.70;99.40;;;;;;4927457;29;20054;-77
2023/04/08 12:16:15;;;;;;;17.88;11.55;;;10.70;98.80;;;;;;4939854;28;20070;-77
2023/04/08 12:18:41;;;;;;;20.23;11.98;;;10.60;98.60;;;;;;4938884;28;20116;-77
2023/04/08 12:21:07;;;;;;;18.65;11.15;;;10.60;98.50;;;;;;4927645;29;20039;-78
2023/04/08 12:23:32;;;;;;;17.80;10.75;;;10.70;98.00;;;;;;4925892;28;20040;-76
2023/04/08 12:25:58;;;;;;;16.98;10.57;;;10.70;97.90;;;;;;4928301;29;20091;-76
2023/04/08 12:28:24;;;;;;;14.77;10.30;;;10.70;97.80;;;;;;4937746;28;20035;-75
2023/04/08 12:30:49;;;;;;;15.35;10.00;;;10.70;97.70;;;;;;4930364;29;20415;-76
2023/04/08 12:33:16;;;;;;;19.48;12.20;;;10.70;97.70;;;;;;4929131;29;20386;-76
2023/04/08 12:35:42;;;;;;;19.40;11.38;;;10.70;97.60;;;;;;4926910;29;20665;-76
2023/04/08 12:38:08;;;;;;;18.83;12.07;;;10.70;97.80;;;;;;4927753;29;20024;-76
2023/04/08 12:40:33;;;;;;;17.83;10.88;;;10.70;97.80;;;;;;4929234;29;20377;-75
2023/04/08 12:42:59;;;;;;;21.05;12.20;;;10.70;97.80;;;;;;4930745;29;20499;-76
2023/04/08 12:45:25;;;;;;;33.40;15.23;;;10.80;98.10;;;;;;4929299;29;20027;-76
2023/04/08 12:47:51;;;;;;;21.35;12.55;;;10.80;97.60;;;;;;4928727;29;20467;-76
2023/04/08 12:50:17;;;;;;;17.45;11.88;;;10.80;97.80;;;;;;4928827;29;20035;-76
2023/04/08 12:52:42;;;;;;;16.15;11.25;;;10.70;97.70;;;;;;4929541;29;20117;-76